createdAt,value
2019-02-14T00:00:17.848Z,100.00
2019-02-14T00:10:19.089Z,100.00
2019-02-14T00:20:20.037Z,100.00
2019-02-14T00:30:20.749Z,100.00
2019-02-14T00:40:21.442Z,100.00
2019-02-14T00:50:22.126Z,100.00
2019-02-14T01:00:22.792Z,100.00
2019-02-14T01:10:26.463Z,100.00
2019-02-14T01:20:27.383Z,100.00
2019-02-14T01:30:28.138Z,100.00
2019-02-14T01:40:28.829Z,100.00
2019-02-14T01:50:29.770Z,100.00
2019-02-14T02:00:33.252Z,100.00
2019-02-14T02:10:33.933Z,100.00
2019-02-14T02:20:34.589Z,100.00
2019-02-14T02:30:35.225Z,100.00
2019-02-14T02:40:39.051Z,100.00
2019-02-14T02:50:41.781Z,100.00
2019-02-14T03:00:42.423Z,100.00
2019-02-14T03:10:43.081Z,100.00
2019-02-14T03:20:43.768Z,100.00
2019-02-14T03:30:47.505Z,100.00
2019-02-14T03:40:48.374Z,100.00
2019-02-14T03:50:50.811Z,100.00
2019-02-14T04:00:51.491Z,100.00
2019-02-14T04:10:55.185Z,100.00
2019-02-14T04:20:55.841Z,100.00
2019-02-14T04:30:56.565Z,100.00
2019-02-14T04:40:57.269Z,100.00
2019-02-14T04:50:57.915Z,100.00
2019-02-14T05:00:58.560Z,100.00
2019-02-14T05:10:59.276Z,100.00
2019-02-14T05:21:05.365Z,100.00
2019-02-14T05:31:06.046Z,100.00
2019-02-14T05:41:08.346Z,100.00
2019-02-14T05:51:09.197Z,100.00
2019-02-14T06:01:13.110Z,100.00
2019-02-14T06:11:16.794Z,100.00
2019-02-14T06:21:17.441Z,100.00
2019-02-14T06:31:18.092Z,100.00
2019-02-14T06:41:18.733Z,100.00
2019-02-14T06:51:19.423Z,100.00
2019-02-14T07:01:20.192Z,100.00
2019-02-14T07:11:21.085Z,100.00
2019-02-14T07:21:21.946Z,100.00
2019-02-14T07:31:22.854Z,100.00
2019-02-14T07:41:23.897Z,100.00
2019-02-14T07:51:25.445Z,100.00
2019-02-14T08:01:26.172Z,100.00
2019-02-14T08:11:27.157Z,100.00
2019-02-14T08:21:27.918Z,100.00
2019-02-14T08:31:29.304Z,100.00
2019-02-14T08:41:30.708Z,100.00
2019-02-14T08:51:32.604Z,100.00
2019-02-14T09:01:33.716Z,100.00
2019-02-14T09:11:34.361Z,100.00
2019-02-14T09:21:35.461Z,100.00
2019-02-14T09:31:36.373Z,100.00
2019-02-14T09:41:37.298Z,100.00
2019-02-14T09:51:37.984Z,100.00
2019-02-14T10:01:41.530Z,100.00
2019-02-14T10:11:44.506Z,100.00
2019-02-14T10:21:45.171Z,100.00
2019-02-14T10:31:46.110Z,100.00
2019-02-14T10:41:48.154Z,100.00
2019-02-14T10:51:49.051Z,100.00
2019-02-14T11:01:49.663Z,100.00
2019-02-14T11:11:51.632Z,100.00
2019-02-14T11:21:52.473Z,100.00
2019-02-14T11:31:53.343Z,100.00
2019-02-14T11:41:53.995Z,100.00
2019-02-14T11:51:56.795Z,100.00
2019-02-14T12:02:00.213Z,95.62
2019-02-14T12:12:01.131Z,92.90
2019-02-14T12:22:03.063Z,91.92
2019-02-14T12:32:03.982Z,84.77
2019-02-14T12:42:04.964Z,82.34
2019-02-14T12:52:05.918Z,81.16
2019-02-14T13:02:06.815Z,87.57
2019-02-14T13:12:07.527Z,92.27
2019-02-14T13:22:08.398Z,88.20
2019-02-14T13:32:09.099Z,92.80
2019-02-14T13:42:09.669Z,89.93
2019-02-14T13:52:10.317Z,91.02
2019-02-14T14:02:11.000Z,96.50
2019-02-14T14:12:11.683Z,91.66
2019-02-14T14:22:12.359Z,87.65
2019-02-14T14:32:13.072Z,93.32
2019-02-14T14:42:13.730Z,93.04
2019-02-14T14:52:16.250Z,92.17
2019-02-14T15:02:17.357Z,85.78
2019-02-14T15:12:18.012Z,90.52
2019-02-14T15:22:19.044Z,90.70
2019-02-14T15:32:19.747Z,81.60
2019-02-14T15:42:21.030Z,81.28
2019-02-14T15:52:21.749Z,82.45
2019-02-14T16:02:22.682Z,79.53
2019-02-14T16:12:23.477Z,81.68
2019-02-14T16:22:30.122Z,88.74
2019-02-14T16:32:29.007Z,96.69
2019-02-14T16:42:29.712Z,100.00
2019-02-14T16:52:30.566Z,100.00
2019-02-14T17:02:31.300Z,100.00
2019-02-14T17:12:31.989Z,100.00
2019-02-14T17:22:32.977Z,100.00
2019-02-14T17:32:33.918Z,100.00
2019-02-14T17:42:34.669Z,100.00
2019-02-14T17:52:35.549Z,100.00
2019-02-14T18:02:36.479Z,100.00
2019-02-14T18:12:37.116Z,100.00
2019-02-14T18:22:38.113Z,100.00
2019-02-14T18:32:41.589Z,100.00
2019-02-14T18:42:44.713Z,100.00
2019-02-14T18:52:45.385Z,100.00
2019-02-14T19:02:46.061Z,100.00
2019-02-14T19:12:59.313Z,100.00
2019-02-14T19:23:00.457Z,100.00
2019-02-14T19:33:01.152Z,100.00
2019-02-14T19:43:01.899Z,100.00
2019-02-14T19:53:02.612Z,100.00
2019-02-14T20:03:03.438Z,100.00
2019-02-14T20:13:04.526Z,100.00
2019-02-14T20:23:06.116Z,100.00
2019-02-14T20:33:07.152Z,100.00
2019-02-14T20:43:08.162Z,100.00
2019-02-14T20:53:08.981Z,100.00
2019-02-14T21:03:09.778Z,100.00
2019-02-14T21:13:10.890Z,100.00
2019-02-14T21:23:13.726Z,100.00
2019-02-14T21:33:14.389Z,100.00
2019-02-14T21:43:15.290Z,100.00
2019-02-14T21:53:15.937Z,100.00
2019-02-14T22:03:18.865Z,100.00
2019-02-14T22:23:45.806Z,100.00
2019-02-14T22:33:46.700Z,100.00
2019-02-14T22:43:47.497Z,100.00
2019-02-14T22:53:48.651Z,100.00
2019-02-14T23:03:49.472Z,100.00
2019-02-14T23:13:55.852Z,100.00
2019-02-14T23:24:22.390Z,100.00
2019-02-14T23:34:23.582Z,100.00
2019-02-14T23:44:24.848Z,100.00
2019-02-14T23:54:25.801Z,100.00
